sensor_id;sensor_type;location;lat;lon;timestamp;P1;durP1;ratioP1;P2;durP2;ratioP2
76292;SDS011;67256;51.154;4.164;2023-07-08T00:00:41;5.97;;;3.47;;
76292;SDS011;67256;51.154;4.164;2023-07-08T00:03:07;9.07;;;4.03;;
76292;SDS011;67256;51.154;4.164;2023-07-08T00:05:34;5.80;;;3.70;;
76292;SDS011;67256;51.154;4.164;2023-07-08T00:08:00;7.43;;;4.55;;
76292;SDS011;67256;51.154;4.164;2023-07-08T00:10:27;8.73;;;4.07;;
76292;SDS011;67256;51.154;4.164;2023-07-08T00:12:54;9.05;;;3.95;;
76292;SDS011;67256;51.154;4.164;2023-07-08T00:15:23;7.05;;;3.97;;
76292;SDS011;67256;51.154;4.164;2023-07-08T00:17:51;7.22;;;4.45;;
76292;SDS011;67256;51.154;4.164;2023-07-08T00:20:36;10.50;;;3.90;;
76292;SDS011;67256;51.154;4.164;2023-07-08T00:23:04;6.95;;;4.20;;
76292;SDS011;67256;51.154;4.164;2023-07-08T00:25:30;6.78;;;3.80;;
76292;SDS011;67256;51.154;4.164;2023-07-08T00:27:56;8.02;;;4.65;;
76292;SDS011;67256;51.154;4.164;2023-07-08T00:30:27;7.13;;;3.85;;
76292;SDS011;67256;51.154;4.164;2023-07-08T00:32:55;9.57;;;4.63;;
76292;SDS011;67256;51.154;4.164;2023-07-08T00:35:30;5.95;;;4.15;;
76292;SDS011;67256;51.154;4.164;2023-07-08T00:38:01;7.20;;;4.75;;
76292;SDS011;67256;51.154;4.164;2023-07-08T00:40:38;8.00;;;3.90;;
76292;SDS011;67256;51.154;4.164;2023-07-08T00:43:17;7.90;;;4.30;;
76292;SDS011;67256;51.154;4.164;2023-07-08T00:45:46;9.43;;;4.65;;
76292;SDS011;67256;51.154;4.164;2023-07-08T00:48:23;9.88;;;4.50;;
76292;SDS011;67256;51.154;4.164;2023-07-08T00:50:59;6.55;;;4.00;;
76292;SDS011;67256;51.154;4.164;2023-07-08T00:53:32;9.32;;;4.10;;
76292;SDS011;67256;51.154;4.164;2023-07-08T00:56:14;9.88;;;4.30;;
76292;SDS011;67256;51.154;4.164;2023-07-08T00:58:50;7.43;;;4.00;;
76292;SDS011;67256;51.154;4.164;2023-07-08T01:01:20;8.70;;;4.22;;
76292;SDS011;67256;51.154;4.164;2023-07-08T01:06:38;11.02;;;4.50;;
76292;SDS011;67256;51.154;4.164;2023-07-08T01:09:10;8.20;;;4.20;;
76292;SDS011;67256;51.154;4.164;2023-07-08T01:11:39;8.70;;;4.38;;
76292;SDS011;67256;51.154;4.164;2023-07-08T01:14:08;6.18;;;4.07;;
76292;SDS011;67256;51.154;4.164;2023-07-08T01:16:37;6.85;;;4.15;;
76292;SDS011;67256;51.154;4.164;2023-07-08T01:19:03;9.63;;;4.68;;
76292;SDS011;67256;51.154;4.164;2023-07-08T01:23:59;10.35;;;4.80;;
76292;SDS011;67256;51.154;4.164;2023-07-08T01:26:27;9.00;;;4.68;;
76292;SDS011;67256;51.154;4.164;2023-07-08T01:28:55;10.07;;;3.97;;
76292;SDS011;67256;51.154;4.164;2023-07-08T01:31:22;8.45;;;4.00;;
76292;SDS011;67256;51.154;4.164;2023-07-08T01:33:49;7.65;;;3.78;;
76292;SDS011;67256;51.154;4.164;2023-07-08T01:36:16;7.60;;;4.00;;
76292;SDS011;67256;51.154;4.164;2023-07-08T01:38:42;10.05;;;4.22;;
76292;SDS011;67256;51.154;4.164;2023-07-08T01:41:13;6.80;;;4.45;;
76292;SDS011;67256;51.154;4.164;2023-07-08T01:43:41;7.45;;;3.65;;
76292;SDS011;67256;51.154;4.164;2023-07-08T01:46:11;6.38;;;3.90;;
76292;SDS011;67256;51.154;4.164;2023-07-08T01:48:43;7.25;;;4.22;;
76292;SDS011;67256;51.154;4.164;2023-07-08T01:51:16;9.65;;;4.07;;
76292;SDS011;67256;51.154;4.164;2023-07-08T01:53:43;9.07;;;4.60;;
76292;SDS011;67256;51.154;4.164;2023-07-08T01:56:10;6.45;;;4.50;;
76292;SDS011;67256;51.154;4.164;2023-07-08T01:58:37;6.93;;;4.32;;
76292;SDS011;67256;51.154;4.164;2023-07-08T02:01:02;8.80;;;4.32;;
76292;SDS011;67256;51.154;4.164;2023-07-08T02:03:29;12.77;;;4.90;;
76292;SDS011;67256;51.154;4.164;2023-07-08T02:05:55;8.02;;;4.10;;
76292;SDS011;67256;51.154;4.164;2023-07-08T02:08:21;6.95;;;4.03;;
76292;SDS011;67256;51.154;4.164;2023-07-08T02:10:51;6.93;;;4.10;;
76292;SDS011;67256;51.154;4.164;2023-07-08T02:13:18;9.18;;;4.35;;
76292;SDS011;67256;51.154;4.164;2023-07-08T02:15:45;9.55;;;4.45;;
76292;SDS011;67256;51.154;4.164;2023-07-08T02:18:11;9.45;;;5.20;;
76292;SDS011;67256;51.154;4.164;2023-07-08T02:20:37;6.93;;;3.90;;
76292;SDS011;67256;51.154;4.164;2023-07-08T02:23:03;6.85;;;4.50;;
76292;SDS011;67256;51.154;4.164;2023-07-08T02:25:28;10.85;;;4.40;;
76292;SDS011;67256;51.154;4.164;2023-07-08T02:27:54;8.50;;;4.13;;
76292;SDS011;67256;51.154;4.164;2023-07-08T02:30:22;10.38;;;4.22;;
76292;SDS011;67256;51.154;4.164;2023-07-08T02:32:49;7.38;;;4.00;;
76292;SDS011;67256;51.154;4.164;2023-07-08T02:35:22;8.25;;;4.00;;
76292;SDS011;67256;51.154;4.164;2023-07-08T02:37:50;12.05;;;4.93;;
76292;SDS011;67256;51.154;4.164;2023-07-08T02:40:16;7.75;;;3.85;;
76292;SDS011;67256;51.154;4.164;2023-07-08T02:42:42;6.57;;;3.90;;
76292;SDS011;67256;51.154;4.164;2023-07-08T02:45:08;7.78;;;4.50;;
76292;SDS011;67256;51.154;4.164;2023-07-08T02:47:34;8.02;;;4.15;;
76292;SDS011;67256;51.154;4.164;2023-07-08T02:49:59;9.40;;;4.28;;
76292;SDS011;67256;51.154;4.164;2023-07-08T02:52:25;7.95;;;4.60;;
76292;SDS011;67256;51.154;4.164;2023-07-08T02:54:51;9.05;;;4.28;;
76292;SDS011;67256;51.154;4.164;2023-07-08T02:57:16;9.07;;;4.93;;
76292;SDS011;67256;51.154;4.164;2023-07-08T02:59:43;11.63;;;4.93;;
76292;SDS011;67256;51.154;4.164;2023-07-08T03:02:08;9.38;;;4.70;;
76292;SDS011;67256;51.154;4.164;2023-07-08T03:04:36;10.43;;;4.57;;
76292;SDS011;67256;51.154;4.164;2023-07-08T03:07:04;6.78;;;4.20;;
76292;SDS011;67256;51.154;4.164;2023-07-08T03:09:30;7.30;;;4.18;;
76292;SDS011;67256;51.154;4.164;2023-07-08T03:11:57;11.32;;;4.95;;
76292;SDS011;67256;51.154;4.164;2023-07-08T03:14:23;6.55;;;4.30;;
76292;SDS011;67256;51.154;4.164;2023-07-08T03:16:49;7.22;;;4.28;;
76292;SDS011;67256;51.154;4.164;2023-07-08T03:19:15;7.60;;;4.35;;
76292;SDS011;67256;51.154;4.164;2023-07-08T03:21:42;6.35;;;4.50;;
76292;SDS011;67256;51.154;4.164;2023-07-08T03:24:11;11.57;;;4.43;;
76292;SDS011;67256;51.154;4.164;2023-07-08T03:26:37;7.00;;;4.63;;
76292;SDS011;67256;51.154;4.164;2023-07-08T03:29:03;8.05;;;4.32;;
76292;SDS011;67256;51.154;4.164;2023-07-08T03:31:28;9.07;;;4.40;;
76292;SDS011;67256;51.154;4.164;2023-07-08T03:33:54;10.02;;;5.00;;
76292;SDS011;67256;51.154;4.164;2023-07-08T03:36:20;7.13;;;4.72;;
76292;SDS011;67256;51.154;4.164;2023-07-08T03:38:52;8.38;;;4.20;;
76292;SDS011;67256;51.154;4.164;2023-07-08T03:41:20;7.22;;;4.80;;
76292;SDS011;67256;51.154;4.164;2023-07-08T03:43:46;7.13;;;4.28;;
76292;SDS011;67256;51.154;4.164;2023-07-08T03:46:12;9.40;;;4.70;;
76292;SDS011;67256;51.154;4.164;2023-07-08T03:48:40;9.70;;;4.18;;
76292;SDS011;67256;51.154;4.164;2023-07-08T03:51:15;8.48;;;4.55;;
76292;SDS011;67256;51.154;4.164;2023-07-08T03:53:46;10.85;;;4.80;;
76292;SDS011;67256;51.154;4.164;2023-07-08T03:56:12;12.52;;;4.63;;
76292;SDS011;67256;51.154;4.164;2023-07-08T03:58:38;8.18;;;4.68;;
76292;SDS011;67256;51.154;4.164;2023-07-08T04:01:04;7.70;;;4.50;;
76292;SDS011;67256;51.154;4.164;2023-07-08T04:03:34;8.80;;;5.00;;
76292;SDS011;67256;51.154;4.164;2023-07-08T04:06:00;10.70;;;5.38;;
76292;SDS011;67256;51.154;4.164;2023-07-08T04:08:26;8.77;;;4.70;;
76292;SDS011;67256;51.154;4.164;2023-07-08T04:10:51;9.80;;;4.30;;
76292;SDS011;67256;51.154;4.164;2023-07-08T04:13:17;11.15;;;4.28;;
76292;SDS011;67256;51.154;4.164;2023-07-08T04:15:43;10.35;;;4.50;;
76292;SDS011;67256;51.154;4.164;2023-07-08T04:18:09;8.15;;;4.57;;
76292;SDS011;67256;51.154;4.164;2023-07-08T04:20:35;9.70;;;4.80;;
76292;SDS011;67256;51.154;4.164;2023-07-08T04:23:00;9.63;;;4.55;;
76292;SDS011;67256;51.154;4.164;2023-07-08T04:25:26;10.55;;;4.93;;
76292;SDS011;67256;51.154;4.164;2023-07-08T04:27:52;8.25;;;4.20;;
76292;SDS011;67256;51.154;4.164;2023-07-08T04:30:22;9.25;;;4.68;;
76292;SDS011;67256;51.154;4.164;2023-07-08T04:32:50;9.02;;;4.68;;
76292;SDS011;67256;51.154;4.164;2023-07-08T04:35:17;10.18;;;5.22;;
76292;SDS011;67256;51.154;4.164;2023-07-08T04:37:43;9.60;;;4.88;;
76292;SDS011;67256;51.154;4.164;2023-07-08T04:40:14;6.60;;;4.47;;
76292;SDS011;67256;51.154;4.164;2023-07-08T04:42:44;11.73;;;4.88;;
76292;SDS011;67256;51.154;4.164;2023-07-08T04:45:12;9.10;;;4.38;;
76292;SDS011;67256;51.154;4.164;2023-07-08T04:47:39;10.48;;;4.30;;
76292;SDS011;67256;51.154;4.164;2023-07-08T04:50:05;9.02;;;4.72;;
76292;SDS011;67256;51.154;4.164;2023-07-08T04:52:31;6.93;;;4.60;;
76292;SDS011;67256;51.154;4.164;2023-07-08T04:54:56;7.63;;;4.70;;
76292;SDS011;67256;51.154;4.164;2023-07-08T04:57:22;10.32;;;4.97;;
76292;SDS011;67256;51.154;4.164;2023-07-08T04:59:48;9.23;;;4.38;;
76292;SDS011;67256;51.154;4.164;2023-07-08T05:02:14;9.50;;;4.25;;
76292;SDS011;67256;51.154;4.164;2023-07-08T05:04:40;7.25;;;4.70;;
76292;SDS011;67256;51.154;4.164;2023-07-08T05:07:05;8.00;;;4.65;;
76292;SDS011;67256;51.154;4.164;2023-07-08T05:09:31;11.00;;;4.43;;
76292;SDS011;67256;51.154;4.164;2023-07-08T05:11:57;7.47;;;4.90;;
76292;SDS011;67256;51.154;4.164;2023-07-08T05:14:23;10.60;;;4.60;;
76292;SDS011;67256;51.154;4.164;2023-07-08T05:16:49;6.80;;;4.80;;
76292;SDS011;67256;51.154;4.164;2023-07-08T05:19:15;7.95;;;4.47;;
76292;SDS011;67256;51.154;4.164;2023-07-08T05:21:40;7.80;;;4.75;;
76292;SDS011;67256;51.154;4.164;2023-07-08T05:24:08;7.38;;;5.22;;
76292;SDS011;67256;51.154;4.164;2023-07-08T05:26:33;11.13;;;4.97;;
76292;SDS011;67256;51.154;4.164;2023-07-08T05:28:59;13.73;;;5.40;;
76292;SDS011;67256;51.154;4.164;2023-07-08T05:31:25;6.28;;;4.38;;
76292;SDS011;67256;51.154;4.164;2023-07-08T05:33:51;8.40;;;5.20;;
76292;SDS011;67256;51.154;4.164;2023-07-08T05:36:17;9.60;;;5.18;;
76292;SDS011;67256;51.154;4.164;2023-07-08T05:38:43;9.70;;;4.72;;
76292;SDS011;67256;51.154;4.164;2023-07-08T05:41:09;11.45;;;5.22;;
76292;SDS011;67256;51.154;4.164;2023-07-08T05:43:35;12.65;;;4.85;;
76292;SDS011;67256;51.154;4.164;2023-07-08T05:46:01;11.25;;;4.88;;
76292;SDS011;67256;51.154;4.164;2023-07-08T05:48:27;15.77;;;4.97;;
76292;SDS011;67256;51.154;4.164;2023-07-08T05:50:55;16.13;;;5.57;;
76292;SDS011;67256;51.154;4.164;2023-07-08T05:53:20;8.25;;;5.32;;
76292;SDS011;67256;51.154;4.164;2023-07-08T05:55:47;7.95;;;5.60;;
76292;SDS011;67256;51.154;4.164;2023-07-08T05:58:13;9.32;;;5.70;;
76292;SDS011;67256;51.154;4.164;2023-07-08T06:00:41;8.30;;;5.68;;
76292;SDS011;67256;51.154;4.164;2023-07-08T06:03:09;10.48;;;5.40;;
76292;SDS011;67256;51.154;4.164;2023-07-08T06:05:36;10.73;;;5.22;;
76292;SDS011;67256;51.154;4.164;2023-07-08T06:08:02;6.70;;;5.13;;
76292;SDS011;67256;51.154;4.164;2023-07-08T06:10:28;9.98;;;5.20;;
76292;SDS011;67256;51.154;4.164;2023-07-08T06:12:54;9.98;;;5.70;;
76292;SDS011;67256;51.154;4.164;2023-07-08T06:15:20;18.65;;;5.50;;
76292;SDS011;67256;51.154;4.164;2023-07-08T06:17:47;10.00;;;5.20;;
76292;SDS011;67256;51.154;4.164;2023-07-08T06:20:12;8.43;;;4.95;;
76292;SDS011;67256;51.154;4.164;2023-07-08T06:22:38;10.45;;;5.47;;
76292;SDS011;67256;51.154;4.164;2023-07-08T06:25:04;11.73;;;5.47;;
76292;SDS011;67256;51.154;4.164;2023-07-08T06:27:30;7.50;;;4.60;;
76292;SDS011;67256;51.154;4.164;2023-07-08T06:29:56;11.82;;;5.65;;
76292;SDS011;67256;51.154;4.164;2023-07-08T06:32:22;13.48;;;6.00;;
76292;SDS011;67256;51.154;4.164;2023-07-08T06:34:48;11.63;;;5.85;;
76292;SDS011;67256;51.154;4.164;2023-07-08T06:37:13;12.35;;;6.25;;
76292;SDS011;67256;51.154;4.164;2023-07-08T06:39:39;8.55;;;5.57;;
76292;SDS011;67256;51.154;4.164;2023-07-08T06:42:05;9.90;;;5.43;;
76292;SDS011;67256;51.154;4.164;2023-07-08T06:44:31;9.77;;;5.18;;
76292;SDS011;67256;51.154;4.164;2023-07-08T06:46:57;7.45;;;5.25;;
76292;SDS011;67256;51.154;4.164;2023-07-08T06:49:22;11.43;;;5.88;;
76292;SDS011;67256;51.154;4.164;2023-07-08T06:51:48;9.70;;;5.03;;
76292;SDS011;67256;51.154;4.164;2023-07-08T06:54:14;11.27;;;4.88;;
76292;SDS011;67256;51.154;4.164;2023-07-08T06:56:40;7.53;;;5.63;;
76292;SDS011;67256;51.154;4.164;2023-07-08T06:59:07;11.80;;;5.47;;
76292;SDS011;67256;51.154;4.164;2023-07-08T07:01:33;11.95;;;5.68;;
76292;SDS011;67256;51.154;4.164;2023-07-08T07:04:01;11.48;;;5.47;;
76292;SDS011;67256;51.154;4.164;2023-07-08T07:06:28;10.55;;;5.45;;
76292;SDS011;67256;51.154;4.164;2023-07-08T07:08:54;16.10;;;5.70;;
76292;SDS011;67256;51.154;4.164;2023-07-08T07:11:21;10.90;;;5.72;;
76292;SDS011;67256;51.154;4.164;2023-07-08T07:13:46;9.85;;;5.60;;
76292;SDS011;67256;51.154;4.164;2023-07-08T07:16:12;8.13;;;4.57;;
76292;SDS011;67256;51.154;4.164;2023-07-08T07:18:38;8.48;;;4.88;;
76292;SDS011;67256;51.154;4.164;2023-07-08T07:21:04;12.65;;;6.13;;
76292;SDS011;67256;51.154;4.164;2023-07-08T07:23:30;12.02;;;4.90;;
76292;SDS011;67256;51.154;4.164;2023-07-08T07:25:55;11.52;;;5.35;;
76292;SDS011;67256;51.154;4.164;2023-07-08T07:28:22;9.90;;;4.35;;
76292;SDS011;67256;51.154;4.164;2023-07-08T07:30:54;9.93;;;4.43;;
76292;SDS011;67256;51.154;4.164;2023-07-08T07:33:22;12.77;;;4.93;;
76292;SDS011;67256;51.154;4.164;2023-07-08T07:35:48;9.68;;;4.47;;
76292;SDS011;67256;51.154;4.164;2023-07-08T07:38:14;11.60;;;5.20;;
76292;SDS011;67256;51.154;4.164;2023-07-08T07:40:44;10.50;;;5.53;;
76292;SDS011;67256;51.154;4.164;2023-07-08T07:43:10;11.07;;;5.63;;
76292;SDS011;67256;51.154;4.164;2023-07-08T07:45:36;6.90;;;4.60;;
76292;SDS011;67256;51.154;4.164;2023-07-08T07:48:02;7.90;;;4.90;;
76292;SDS011;67256;51.154;4.164;2023-07-08T07:50:29;8.48;;;4.85;;
76292;SDS011;67256;51.154;4.164;2023-07-08T07:52:55;6.05;;;4.50;;
76292;SDS011;67256;51.154;4.164;2023-07-08T07:55:21;8.85;;;5.07;;
76292;SDS011;67256;51.154;4.164;2023-07-08T07:57:47;9.82;;;4.80;;
76292;SDS011;67256;51.154;4.164;2023-07-08T08:00:13;7.60;;;4.88;;
76292;SDS011;67256;51.154;4.164;2023-07-08T08:02:39;9.70;;;5.32;;
76292;SDS011;67256;51.154;4.164;2023-07-08T08:05:06;7.65;;;5.05;;
76292;SDS011;67256;51.154;4.164;2023-07-08T08:07:32;7.88;;;5.13;;
76292;SDS011;67256;51.154;4.164;2023-07-08T08:09:57;9.02;;;5.50;;
76292;SDS011;67256;51.154;4.164;2023-07-08T08:12:23;7.60;;;5.18;;
76292;SDS011;67256;51.154;4.164;2023-07-08T08:14:50;7.97;;;4.80;;
76292;SDS011;67256;51.154;4.164;2023-07-08T08:17:16;7.25;;;4.80;;
76292;SDS011;67256;51.154;4.164;2023-07-08T08:19:42;8.93;;;5.38;;
76292;SDS011;67256;51.154;4.164;2023-07-08T08:22:08;8.88;;;5.68;;
76292;SDS011;67256;51.154;4.164;2023-07-08T08:24:34;11.30;;;5.10;;
76292;SDS011;67256;51.154;4.164;2023-07-08T08:27:00;10.50;;;5.20;;
76292;SDS011;67256;51.154;4.164;2023-07-08T08:29:25;11.85;;;5.18;;
76292;SDS011;67256;51.154;4.164;2023-07-08T08:31:52;10.18;;;5.60;;
76292;SDS011;67256;51.154;4.164;2023-07-08T08:34:19;6.63;;;4.82;;
76292;SDS011;67256;51.154;4.164;2023-07-08T08:36:45;6.38;;;4.47;;
76292;SDS011;67256;51.154;4.164;2023-07-08T08:39:11;8.38;;;4.80;;
76292;SDS011;67256;51.154;4.164;2023-07-08T08:41:40;10.25;;;5.53;;
76292;SDS011;67256;51.154;4.164;2023-07-08T08:44:10;10.80;;;5.40;;
76292;SDS011;67256;51.154;4.164;2023-07-08T08:51:46;13.02;;;5.32;;
76292;SDS011;67256;51.154;4.164;2023-07-08T08:54:12;9.00;;;4.57;;
76292;SDS011;67256;51.154;4.164;2023-07-08T09:01:56;9.57;;;5.38;;
76292;SDS011;67256;51.154;4.164;2023-07-08T09:04:25;9.50;;;4.82;;
76292;SDS011;67256;51.154;4.164;2023-07-08T09:06:59;12.38;;;5.68;;
76292;SDS011;67256;51.154;4.164;2023-07-08T09:09:34;8.73;;;5.60;;
76292;SDS011;67256;51.154;4.164;2023-07-08T09:12:05;13.95;;;5.13;;
76292;SDS011;67256;51.154;4.164;2023-07-08T09:14:41;8.55;;;5.32;;
76292;SDS011;67256;51.154;4.164;2023-07-08T09:17:14;9.40;;;5.70;;
76292;SDS011;67256;51.154;4.164;2023-07-08T09:20:28;13.38;;;5.90;;
76292;SDS011;67256;51.154;4.164;2023-07-08T09:25:31;10.40;;;6.15;;
76292;SDS011;67256;51.154;4.164;2023-07-08T09:28:04;9.65;;;6.50;;
76292;SDS011;67256;51.154;4.164;2023-07-08T09:30:30;10.05;;;5.65;;
76292;SDS011;67256;51.154;4.164;2023-07-08T09:32:56;10.52;;;6.10;;
76292;SDS011;67256;51.154;4.164;2023-07-08T09:35:27;11.40;;;5.72;;
76292;SDS011;67256;51.154;4.164;2023-07-08T09:38:06;14.65;;;5.93;;
76292;SDS011;67256;51.154;4.164;2023-07-08T09:40:49;10.95;;;6.30;;
76292;SDS011;67256;51.154;4.164;2023-07-08T09:45:46;16.20;;;6.03;;
76292;SDS011;67256;51.154;4.164;2023-07-08T09:50:47;10.73;;;6.82;;
76292;SDS011;67256;51.154;4.164;2023-07-08T09:53:14;14.02;;;5.65;;
76292;SDS011;67256;51.154;4.164;2023-07-08T09:55:40;11.57;;;6.13;;
76292;SDS011;67256;51.154;4.164;2023-07-08T09:58:08;9.95;;;5.43;;
76292;SDS011;67256;51.154;4.164;2023-07-08T10:00:39;10.93;;;5.45;;
76292;SDS011;67256;51.154;4.164;2023-07-08T10:03:12;16.92;;;5.60;;
76292;SDS011;67256;51.154;4.164;2023-07-08T10:05:46;8.68;;;5.75;;
76292;SDS011;67256;51.154;4.164;2023-07-08T10:08:17;9.30;;;5.97;;
76292;SDS011;67256;51.154;4.164;2023-07-08T10:10:46;10.27;;;5.75;;
76292;SDS011;67256;51.154;4.164;2023-07-08T10:13:24;8.18;;;5.47;;
76292;SDS011;67256;51.154;4.164;2023-07-08T10:16:23;12.57;;;5.88;;
76292;SDS011;67256;51.154;4.164;2023-07-08T10:18:50;15.45;;;5.75;;
76292;SDS011;67256;51.154;4.164;2023-07-08T10:23:57;9.82;;;5.57;;
76292;SDS011;67256;51.154;4.164;2023-07-08T10:26:48;5.75;;;4.25;;
76292;SDS011;67256;51.154;4.164;2023-07-08T10:43:03;9.98;;;5.28;;
76292;SDS011;67256;51.154;4.164;2023-07-08T10:45:44;9.50;;;5.75;;
76292;SDS011;67256;51.154;4.164;2023-07-08T10:51:13;13.55;;;5.20;;
76292;SDS011;67256;51.154;4.164;2023-07-08T10:56:53;8.48;;;5.30;;
76292;SDS011;67256;51.154;4.164;2023-07-08T11:02:22;10.38;;;4.68;;
76292;SDS011;67256;51.154;4.164;2023-07-08T11:10:54;7.47;;;4.75;;
76292;SDS011;67256;51.154;4.164;2023-07-08T11:13:25;10.02;;;4.85;;
76292;SDS011;67256;51.154;4.164;2023-07-08T11:16:16;10.60;;;5.35;;
76292;SDS011;67256;51.154;4.164;2023-07-08T11:18:50;11.77;;;4.88;;
76292;SDS011;67256;51.154;4.164;2023-07-08T11:21:21;6.38;;;4.43;;
76292;SDS011;67256;51.154;4.164;2023-07-08T11:23:53;10.52;;;4.93;;
76292;SDS011;67256;51.154;4.164;2023-07-08T11:26:33;8.23;;;4.38;;
76292;SDS011;67256;51.154;4.164;2023-07-08T11:29:30;7.47;;;5.15;;
76292;SDS011;67256;51.154;4.164;2023-07-08T11:32:05;9.30;;;5.03;;
76292;SDS011;67256;51.154;4.164;2023-07-08T11:37:01;9.05;;;5.07;;
76292;SDS011;67256;51.154;4.164;2023-07-08T11:44:35;9.85;;;5.53;;
76292;SDS011;67256;51.154;4.164;2023-07-08T11:47:19;6.75;;;4.80;;
76292;SDS011;67256;51.154;4.164;2023-07-08T11:50:30;7.43;;;4.95;;
76292;SDS011;67256;51.154;4.164;2023-07-08T11:53:02;7.45;;;4.63;;
76292;SDS011;67256;51.154;4.164;2023-07-08T12:00:58;7.55;;;5.28;;
76292;SDS011;67256;51.154;4.164;2023-07-08T12:03:38;8.77;;;5.38;;
76292;SDS011;67256;51.154;4.164;2023-07-08T12:08:57;10.48;;;5.15;;
76292;SDS011;67256;51.154;4.164;2023-07-08T12:11:28;11.27;;;5.65;;
76292;SDS011;67256;51.154;4.164;2023-07-08T12:14:01;8.98;;;5.47;;
76292;SDS011;67256;51.154;4.164;2023-07-08T12:16:29;10.02;;;5.60;;
76292;SDS011;67256;51.154;4.164;2023-07-08T12:19:00;11.25;;;5.10;;
76292;SDS011;67256;51.154;4.164;2023-07-08T12:21:30;9.18;;;5.53;;
76292;SDS011;67256;51.154;4.164;2023-07-08T12:24:03;10.70;;;5.65;;
76292;SDS011;67256;51.154;4.164;2023-07-08T12:26:31;9.77;;;5.85;;
76292;SDS011;67256;51.154;4.164;2023-07-08T12:29:00;7.95;;;5.13;;
76292;SDS011;67256;51.154;4.164;2023-07-08T12:31:26;10.98;;;5.90;;
76292;SDS011;67256;51.154;4.164;2023-07-08T12:33:52;10.60;;;5.40;;
76292;SDS011;67256;51.154;4.164;2023-07-08T12:36:20;13.43;;;4.78;;
76292;SDS011;67256;51.154;4.164;2023-07-08T12:38:50;11.05;;;5.53;;
76292;SDS011;67256;51.154;4.164;2023-07-08T12:41:18;9.60;;;5.30;;
76292;SDS011;67256;51.154;4.164;2023-07-08T12:43:55;12.40;;;5.40;;
76292;SDS011;67256;51.154;4.164;2023-07-08T12:46:21;10.05;;;5.50;;
76292;SDS011;67256;51.154;4.164;2023-07-08T12:48:47;8.18;;;5.45;;
76292;SDS011;67256;51.154;4.164;2023-07-08T12:51:14;10.88;;;5.57;;
76292;SDS011;67256;51.154;4.164;2023-07-08T12:53:43;8.45;;;5.40;;
76292;SDS011;67256;51.154;4.164;2023-07-08T12:56:09;9.13;;;6.07;;
76292;SDS011;67256;51.154;4.164;2023-07-08T12:58:42;14.00;;;6.55;;
76292;SDS011;67256;51.154;4.164;2023-07-08T13:01:15;7.43;;;5.40;;
76292;SDS011;67256;51.154;4.164;2023-07-08T13:03:43;12.38;;;5.38;;
76292;SDS011;67256;51.154;4.164;2023-07-08T13:06:14;8.48;;;5.85;;
76292;SDS011;67256;51.154;4.164;2023-07-08T13:08:44;11.80;;;5.68;;
76292;SDS011;67256;51.154;4.164;2023-07-08T13:11:16;10.45;;;5.57;;
76292;SDS011;67256;51.154;4.164;2023-07-08T13:13:56;9.00;;;5.70;;
76292;SDS011;67256;51.154;4.164;2023-07-08T13:16:25;12.07;;;5.22;;
76292;SDS011;67256;51.154;4.164;2023-07-08T13:18:56;10.63;;;5.80;;
76292;SDS011;67256;51.154;4.164;2023-07-08T13:21:22;9.10;;;5.90;;
76292;SDS011;67256;51.154;4.164;2023-07-08T13:23:49;12.93;;;5.90;;
76292;SDS011;67256;51.154;4.164;2023-07-08T13:26:19;15.15;;;6.65;;
76292;SDS011;67256;51.154;4.164;2023-07-08T13:28:48;9.70;;;5.68;;
76292;SDS011;67256;51.154;4.164;2023-07-08T13:33:54;9.95;;;5.90;;
76292;SDS011;67256;51.154;4.164;2023-07-08T13:36:24;8.55;;;5.75;;
76292;SDS011;67256;51.154;4.164;2023-07-08T13:38:57;9.77;;;6.07;;
76292;SDS011;67256;51.154;4.164;2023-07-08T13:41:23;11.77;;;6.45;;
76292;SDS011;67256;51.154;4.164;2023-07-08T13:43:50;9.80;;;5.88;;
76292;SDS011;67256;51.154;4.164;2023-07-08T13:49:30;10.63;;;5.93;;
76292;SDS011;67256;51.154;4.164;2023-07-08T13:59:42;11.07;;;5.95;;
76292;SDS011;67256;51.154;4.164;2023-07-08T14:04:50;15.25;;;6.40;;
76292;SDS011;67256;51.154;4.164;2023-07-08T14:07:19;13.27;;;4.97;;
76292;SDS011;67256;51.154;4.164;2023-07-08T14:09:46;12.43;;;5.35;;
76292;SDS011;67256;51.154;4.164;2023-07-08T14:12:12;12.18;;;4.85;;
76292;SDS011;67256;51.154;4.164;2023-07-08T14:14:38;13.80;;;4.70;;
76292;SDS011;67256;51.154;4.164;2023-07-08T14:17:04;12.45;;;4.05;;
76292;SDS011;67256;51.154;4.164;2023-07-08T14:19:34;10.00;;;4.80;;
76292;SDS011;67256;51.154;4.164;2023-07-08T14:24:38;13.15;;;4.47;;
76292;SDS011;67256;51.154;4.164;2023-07-08T14:27:04;8.68;;;4.53;;
76292;SDS011;67256;51.154;4.164;2023-07-08T14:29:37;8.60;;;4.15;;
76292;SDS011;67256;51.154;4.164;2023-07-08T14:32:12;11.00;;;5.15;;
76292;SDS011;67256;51.154;4.164;2023-07-08T14:34:49;10.60;;;4.40;;
76292;SDS011;67256;51.154;4.164;2023-07-08T14:37:19;16.00;;;4.55;;
76292;SDS011;67256;51.154;4.164;2023-07-08T14:39:45;6.95;;;4.13;;
76292;SDS011;67256;51.154;4.164;2023-07-08T14:42:12;10.05;;;4.75;;
76292;SDS011;67256;51.154;4.164;2023-07-08T14:44:42;9.95;;;4.38;;
76292;SDS011;67256;51.154;4.164;2023-07-08T14:47:11;11.48;;;4.50;;
76292;SDS011;67256;51.154;4.164;2023-07-08T14:49:38;9.03;;;4.90;;
76292;SDS011;67256;51.154;4.164;2023-07-08T14:52:04;9.05;;;4.55;;
76292;SDS011;67256;51.154;4.164;2023-07-08T14:54:31;10.82;;;4.72;;
76292;SDS011;67256;51.154;4.164;2023-07-08T14:56:57;8.45;;;4.00;;
76292;SDS011;67256;51.154;4.164;2023-07-08T14:59:23;8.90;;;4.95;;
76292;SDS011;67256;51.154;4.164;2023-07-08T15:01:51;8.97;;;4.47;;
76292;SDS011;67256;51.154;4.164;2023-07-08T15:04:18;6.80;;;4.35;;
76292;SDS011;67256;51.154;4.164;2023-07-08T15:06:44;7.03;;;4.05;;
76292;SDS011;67256;51.154;4.164;2023-07-08T15:09:11;9.63;;;4.68;;
76292;SDS011;67256;51.154;4.164;2023-07-08T15:11:39;6.05;;;3.97;;
76292;SDS011;67256;51.154;4.164;2023-07-08T15:14:17;6.10;;;3.83;;
76292;SDS011;67256;51.154;4.164;2023-07-08T15:16:46;9.27;;;4.75;;
76292;SDS011;67256;51.154;4.164;2023-07-08T15:19:12;8.38;;;4.60;;
76292;SDS011;67256;51.154;4.164;2023-07-08T15:21:38;5.85;;;3.47;;
76292;SDS011;67256;51.154;4.164;2023-07-08T15:24:07;9.82;;;4.18;;
76292;SDS011;67256;51.154;4.164;2023-07-08T15:26:36;8.57;;;3.92;;
76292;SDS011;67256;51.154;4.164;2023-07-08T15:29:06;11.05;;;4.72;;
76292;SDS011;67256;51.154;4.164;2023-07-08T15:31:41;8.68;;;4.22;;
76292;SDS011;67256;51.154;4.164;2023-07-08T15:34:13;9.55;;;4.13;;
76292;SDS011;67256;51.154;4.164;2023-07-08T15:36:40;10.07;;;4.00;;
76292;SDS011;67256;51.154;4.164;2023-07-08T15:39:06;7.45;;;4.45;;
76292;SDS011;67256;51.154;4.164;2023-07-08T15:41:32;9.23;;;4.82;;
76292;SDS011;67256;51.154;4.164;2023-07-08T15:43:58;6.82;;;3.90;;
76292;SDS011;67256;51.154;4.164;2023-07-08T15:46:26;7.80;;;4.40;;
76292;SDS011;67256;51.154;4.164;2023-07-08T15:49:00;9.32;;;4.53;;
76292;SDS011;67256;51.154;4.164;2023-07-08T15:51:26;11.18;;;5.05;;
76292;SDS011;67256;51.154;4.164;2023-07-08T15:53:54;8.38;;;4.57;;
76292;SDS011;67256;51.154;4.164;2023-07-08T15:56:20;9.95;;;4.57;;
76292;SDS011;67256;51.154;4.164;2023-07-08T15:58:46;9.30;;;4.68;;
76292;SDS011;67256;51.154;4.164;2023-07-08T16:01:18;6.20;;;4.53;;
76292;SDS011;67256;51.154;4.164;2023-07-08T16:03:46;9.77;;;4.88;;
76292;SDS011;67256;51.154;4.164;2023-07-08T16:06:13;9.23;;;4.63;;
76292;SDS011;67256;51.154;4.164;2023-07-08T16:08:39;16.38;;;4.30;;
76292;SDS011;67256;51.154;4.164;2023-07-08T16:11:08;10.20;;;4.75;;
76292;SDS011;67256;51.154;4.164;2023-07-08T16:13:41;9.85;;;4.45;;
76292;SDS011;67256;51.154;4.164;2023-07-08T16:16:09;7.70;;;4.28;;
76292;SDS011;67256;51.154;4.164;2023-07-08T16:18:38;7.40;;;4.68;;
76292;SDS011;67256;51.154;4.164;2023-07-08T16:21:05;9.75;;;5.30;;